createdAt,value
2022-11-28T11:35:48.876Z,98613.97
2022-11-28T11:38:33.534Z,98612.78
2022-11-28T11:41:27.529Z,98606.78
2022-11-28T11:43:54.290Z,98607.84
2022-11-28T11:46:20.968Z,98613.72
2022-11-28T11:48:51.555Z,98610.44
2022-11-28T11:51:36.470Z,98611.56
2022-11-28T11:54:15.204Z,98607.16
2022-11-28T11:56:46.862Z,98608.19
2022-11-28T11:59:25.031Z,98598.66
2022-11-28T12:02:14.957Z,98596.63
2022-11-28T12:04:49.037Z,98605.53
2022-11-28T12:07:30.225Z,98607.09
2022-11-28T12:10:01.829Z,98609.72
2022-11-28T12:12:33.824Z,98609.28
2022-11-28T12:15:00.614Z,98610.75
2022-11-28T12:18:13.825Z,98609.66
2022-11-28T12:20:43.376Z,98608.16
2022-11-28T12:23:19.278Z,98613.31
2022-11-28T12:26:56.538Z,98621.28
2022-11-28T12:29:28.911Z,98612.91
2022-11-28T12:32:36.246Z,98608.78
2022-11-28T12:35:32.684Z,98609.63
2022-11-28T12:38:10.694Z,98616.28
2022-11-28T12:41:01.624Z,98615.84
2022-11-28T12:43:56.668Z,98618.16
2022-11-28T12:46:50.404Z,98617.63
2022-11-28T12:49:32.253Z,98621.50
2022-11-28T12:52:20.616Z,98625.72
2022-11-28T12:54:55.856Z,98620.94
2022-11-28T12:57:39.413Z,98617.88
2022-11-28T13:00:09.978Z,98615.59
2022-11-28T13:02:58.492Z,98612.41
2022-11-28T13:05:46.858Z,98615.41
2022-11-28T13:08:48.439Z,98610.03
2022-11-28T13:11:41.753Z,98614.38
2022-11-28T13:14:38.178Z,98613.56
2022-11-28T13:17:33.187Z,98607.44
2022-11-28T13:20:04.221Z,98605.25
2022-11-28T13:22:58.587Z,98622.28
2022-11-28T13:25:39.335Z,98619.16
2022-11-28T13:28:39.739Z,98615.94
2022-11-28T13:31:33.970Z,98612.06
2022-11-28T13:34:01.337Z,98617.69
2022-11-28T13:39:47.243Z,98613.25
2022-11-28T13:45:32.763Z,98620.91
2022-11-28T13:48:00.937Z,98616.78
2022-11-28T13:50:33.977Z,98613.22
2022-11-28T13:53:06.718Z,98614.84
2022-11-28T13:55:38.207Z,98615.97
2022-11-28T13:58:44.662Z,98609.28
2022-11-28T14:01:17.928Z,98604.94
2022-11-28T14:04:02.077Z,98610.72
2022-11-28T14:06:39.243Z,98613.75
2022-11-28T14:09:08.786Z,98607.16
2022-11-28T14:12:03.183Z,98605.69
2022-11-28T14:15:07.424Z,98612.00
2022-11-28T14:17:58.726Z,98609.69
2022-11-28T14:20:47.415Z,98606.31
2022-11-28T14:23:20.179Z,98608.00
2022-11-28T14:25:50.859Z,98609.91
2022-11-28T14:28:23.355Z,98608.84
2022-11-28T14:30:51.433Z,98610.31
2022-11-28T14:33:46.714Z,98607.03
2022-11-28T14:36:30.177Z,98614.56
2022-11-28T14:39:33.945Z,98613.31
2022-11-28T14:42:03.905Z,98615.00
2022-11-28T14:44:57.031Z,98613.75
2022-11-28T14:47:43.366Z,98608.19
2022-11-28T14:50:17.557Z,98610.38
2022-11-28T14:53:11.575Z,98617.09
2022-11-28T14:55:40.365Z,98601.63
2022-11-28T14:58:21.225Z,98614.91
2022-11-28T15:00:56.056Z,98604.97
2022-11-28T15:03:49.971Z,98613.09
2022-11-28T15:06:21.868Z,98614.78
2022-11-28T15:09:00.746Z,98613.94
2022-11-28T15:11:45.420Z,98609.72
2022-11-28T15:14:20.881Z,98618.50
2022-11-28T15:16:50.834Z,98616.09
2022-11-28T15:19:25.699Z,98623.84
2022-11-28T15:21:54.556Z,98622.81
2022-11-28T15:24:28.899Z,98618.50
2022-11-28T15:26:58.384Z,98617.03
2022-11-28T15:29:27.033Z,98619.66
2022-11-28T15:31:55.734Z,98622.41
2022-11-28T15:34:29.930Z,98622.59
2022-11-28T15:36:59.550Z,98622.81
2022-11-28T15:39:35.170Z,98622.59
2022-11-28T15:42:04.825Z,98621.56
2022-11-28T15:44:32.004Z,98618.81
2022-11-28T15:46:58.996Z,98621.34
2022-11-28T15:49:35.907Z,98622.28
2022-11-28T15:52:04.936Z,98622.06
2022-11-28T15:54:42.632Z,98622.81
